Terminal Aerodrome Forecast
Issued by NWS Sioux Falls, SD

Home | Current Version | Previous Version | Text Only | Print | Product List | Glossary On
Versions: 1 2 3 4 5 6 7 8 9 10 11 12 13 14 15 16 17 18 19 20 21 22 23 24
061
FTUS43 KFSD 211129
TAFFSD
TAF
KFSD 211129Z 2112/2212 29003KT P6SM SKC
     FM211400 22002KT P6SM SKC
     FM212000 18004KT P6SM SKC
     FM212300 15005KT P6SM FEW015
     FM220800 11004KT P6SM BKN070=

USA.gov is the U.S. government's official web portal to all federal, state and local government web resources and services.